createdAt,value
2023-03-01T04:47:13.728Z,2.60
2023-03-01T04:49:40.367Z,2.80
2023-03-01T04:52:06.993Z,2.80
2023-03-01T04:54:34.747Z,2.80
2023-03-01T04:57:02.528Z,2.80
2023-03-01T04:59:30.101Z,2.60
2023-03-01T05:01:57.512Z,2.60
2023-03-01T05:04:26.034Z,2.50
2023-03-01T05:06:54.787Z,2.60
2023-03-01T05:09:21.455Z,2.60
2023-03-01T05:11:48.136Z,2.50
2023-03-01T05:14:14.822Z,2.50
2023-03-01T05:16:41.507Z,2.70
2023-03-01T05:19:16.610Z,2.70
2023-03-01T05:22:02.658Z,2.80
2023-03-01T05:24:31.480Z,3.00
2023-03-01T05:26:58.367Z,2.80
2023-03-01T05:29:26.667Z,2.70
2023-03-01T05:31:59.394Z,2.70
2023-03-01T05:34:36.813Z,2.80
2023-03-01T05:37:03.500Z,2.80
2023-03-01T05:39:30.966Z,2.80
2023-03-01T05:41:59.801Z,2.90
2023-03-01T05:44:27.905Z,2.80
2023-03-01T05:46:54.800Z,2.70
2023-03-01T05:49:24.828Z,2.70
2023-03-01T05:51:53.937Z,2.40
2023-03-01T05:54:22.590Z,2.60
2023-03-01T05:56:49.398Z,2.60
2023-03-01T05:59:17.224Z,2.50
2023-03-01T06:01:44.439Z,2.60
2023-03-01T06:04:11.266Z,2.60
2023-03-01T06:06:38.706Z,2.50
2023-03-01T06:09:08.111Z,2.60
2023-03-01T06:11:35.992Z,2.70
2023-03-01T06:14:02.857Z,2.50
2023-03-01T06:16:29.995Z,2.70
2023-03-01T06:18:56.781Z,2.70
2023-03-01T06:21:23.451Z,2.70
2023-03-01T06:23:50.641Z,2.80
2023-03-01T06:26:17.293Z,2.50
2023-03-01T06:28:46.978Z,2.60
2023-03-01T06:31:13.935Z,2.50
2023-03-01T06:33:40.575Z,2.50
2023-03-01T06:36:07.911Z,2.60
2023-03-01T06:38:34.865Z,2.40
2023-03-01T06:41:02.200Z,2.30
2023-03-01T06:43:28.880Z,2.30
2023-03-01T06:45:55.548Z,2.30
2023-03-01T06:48:22.224Z,2.20
2023-03-01T06:50:48.900Z,2.30
2023-03-01T06:53:15.595Z,2.20
2023-03-01T06:55:42.647Z,2.40
2023-03-01T06:58:10.456Z,2.50
2023-03-01T07:00:37.106Z,2.70
2023-03-01T07:03:04.342Z,2.60
2023-03-01T07:05:31.697Z,2.60
2023-03-01T07:07:58.451Z,2.80
2023-03-01T07:10:25.245Z,2.60
2023-03-01T07:12:55.094Z,2.60
2023-03-01T07:15:21.715Z,2.60
2023-03-01T07:17:50.885Z,2.70
2023-03-01T07:20:18.890Z,2.40
2023-03-01T07:22:45.618Z,2.30
2023-03-01T07:25:12.359Z,2.40
2023-03-01T07:27:39.138Z,2.40
2023-03-01T07:30:06.459Z,2.30
2023-03-01T07:32:33.126Z,2.20
2023-03-01T07:34:59.932Z,2.20
2023-03-01T07:37:26.622Z,2.30
2023-03-01T07:39:53.268Z,2.30
2023-03-01T07:42:19.869Z,2.40
2023-03-01T07:44:46.459Z,2.50
2023-03-01T07:47:13.117Z,2.50
2023-03-01T07:49:39.710Z,2.60
2023-03-01T07:52:06.374Z,2.70
2023-03-01T07:54:33.048Z,2.80
2023-03-01T07:56:59.705Z,2.80
2023-03-01T07:59:29.920Z,2.60
2023-03-01T08:01:58.192Z,2.50
2023-03-01T08:04:27.503Z,2.50
2023-03-01T08:06:55.403Z,2.60
2023-03-01T08:09:22.633Z,2.60
2023-03-01T08:11:49.370Z,2.50
2023-03-01T08:14:16.087Z,2.60
2023-03-01T08:16:42.941Z,2.40
2023-03-01T08:19:12.395Z,2.40
2023-03-01T08:21:39.261Z,2.50
2023-03-01T08:24:07.733Z,2.60
2023-03-01T08:26:35.205Z,2.70
2023-03-01T08:29:02.360Z,2.50
2023-03-01T08:31:36.503Z,2.50
2023-03-01T08:34:06.458Z,2.40
2023-03-01T08:36:38.856Z,2.50
2023-03-01T08:39:06.066Z,2.60
2023-03-01T08:41:32.858Z,2.50
2023-03-01T08:44:00.134Z,2.60
2023-03-01T08:46:35.320Z,2.80
2023-03-01T08:49:13.013Z,2.70
2023-03-01T08:51:40.445Z,3.00
2023-03-01T08:54:11.912Z,3.00
2023-03-01T08:56:38.921Z,3.10
2023-03-01T08:59:05.710Z,3.30
2023-03-01T09:01:32.370Z,3.30
2023-03-01T09:03:59.195Z,3.20
2023-03-01T09:06:26.070Z,3.00
2023-03-01T09:08:52.840Z,2.80
2023-03-01T09:11:22.147Z,2.80
2023-03-01T09:13:49.674Z,2.80
2023-03-01T09:16:18.698Z,2.80
2023-03-01T09:18:46.143Z,3.00
2023-03-01T09:21:15.893Z,3.00
2023-03-01T09:23:45.385Z,3.00
2023-03-01T09:26:15.510Z,3.10
2023-03-01T09:28:42.120Z,3.20
2023-03-01T09:31:09.430Z,3.30
2023-03-01T09:33:36.160Z,3.00
2023-03-01T09:36:06.089Z,2.90
2023-03-01T09:38:32.952Z,2.90
2023-03-01T09:41:00.704Z,3.20
2023-03-01T09:43:56.761Z,3.30
2023-03-01T09:46:25.713Z,3.40
2023-03-01T09:49:21.058Z,3.20
2023-03-01T09:51:57.477Z,3.10
2023-03-01T09:54:24.446Z,3.40
2023-03-01T09:57:12.656Z,3.60
2023-03-01T09:59:48.281Z,3.40
2023-03-01T10:02:36.222Z,3.20
2023-03-01T10:05:40.193Z,3.00
2023-03-01T10:08:06.804Z,3.00
2023-03-01T10:10:38.400Z,2.70
2023-03-01T10:13:11.387Z,2.80
2023-03-01T10:15:45.542Z,3.00
2023-03-01T10:18:21.400Z,2.90
2023-03-01T10:21:02.247Z,3.20
2023-03-01T10:23:32.371Z,3.40
2023-03-01T10:26:36.677Z,3.50
2023-03-01T10:29:11.606Z,3.70
2023-03-01T10:31:40.235Z,3.40
2023-03-01T10:34:22.276Z,3.30
2023-03-01T10:36:51.983Z,3.30
2023-03-01T10:39:24.663Z,3.40
2023-03-01T10:41:58.716Z,3.30
2023-03-01T10:44:42.209Z,3.40
2023-03-01T10:47:14.192Z,3.40
2023-03-01T10:50:04.191Z,3.50
2023-03-01T10:52:34.571Z,3.60
2023-03-01T10:55:21.801Z,3.70
2023-03-01T10:57:48.530Z,3.80
2023-03-01T11:00:20.376Z,3.80
2023-03-01T11:02:50.537Z,3.90
2023-03-01T11:05:24.871Z,4.00
2023-03-01T11:07:57.349Z,3.90
2023-03-01T11:10:25.141Z,4.00
2023-03-01T11:12:53.879Z,3.90
2023-03-01T11:15:29.440Z,3.90
2023-03-01T11:18:08.968Z,4.00
2023-03-01T11:20:40.534Z,4.10
2023-03-01T11:23:13.179Z,4.40
2023-03-01T11:25:54.196Z,4.40
2023-03-01T11:28:23.244Z,4.30
2023-03-01T11:31:07.852Z,4.10
2023-03-01T11:34:00.744Z,4.20
2023-03-01T11:36:59.478Z,4.20
2023-03-01T11:39:31.901Z,4.10
2023-03-01T11:42:20.682Z,4.00
2023-03-01T11:44:50.730Z,4.00
2023-03-01T11:47:48.341Z,4.10
2023-03-01T11:50:25.543Z,4.10
2023-03-01T11:53:30.584Z,4.10
2023-03-01T11:56:16.612Z,4.00
2023-03-01T11:58:58.996Z,3.70
2023-03-01T12:01:45.956Z,3.70
2023-03-01T12:04:36.825Z,3.70
2023-03-01T12:07:20.864Z,3.70
2023-03-01T12:10:30.116Z,3.50
2023-03-01T12:13:28.414Z,3.50
2023-03-01T12:16:09.881Z,3.40
2023-03-01T12:19:02.961Z,3.50
2023-03-01T12:21:59.398Z,3.60
2023-03-01T12:24:41.296Z,3.90
2023-03-01T12:27:50.960Z,4.20
2023-03-01T12:30:59.417Z,4.10
2023-03-01T12:34:00.390Z,4.00
2023-03-01T12:37:05.900Z,3.80
2023-03-01T12:40:17.438Z,3.60
2023-03-01T12:43:02.255Z,3.80
2023-03-01T12:45:43.972Z,4.00
2023-03-01T12:48:35.556Z,4.20
2023-03-01T12:51:14.958Z,4.60
2023-03-01T12:53:53.420Z,4.80
2023-03-01T12:56:26.199Z,4.80
2023-03-01T12:59:00.437Z,4.70
2023-03-01T13:01:32.129Z,4.70
2023-03-01T13:04:17.552Z,4.80
2023-03-01T13:06:56.162Z,4.80
2023-03-01T13:09:31.636Z,4.70
2023-03-01T13:11:58.731Z,4.70
2023-03-01T13:14:25.419Z,4.80
2023-03-01T13:16:55.660Z,5.00
2023-03-01T13:19:24.959Z,4.70
2023-03-01T13:21:57.484Z,4.80
2023-03-01T13:24:43.718Z,4.70
2023-03-01T13:27:23.656Z,4.80
2023-03-01T13:29:53.204Z,4.70
2023-03-01T13:32:43.041Z,4.80
2023-03-01T13:35:17.590Z,4.90
2023-03-01T13:37:45.383Z,5.00
2023-03-01T13:40:19.388Z,5.10
2023-03-01T13:43:04.196Z,5.10
2023-03-01T13:45:41.466Z,4.70
2023-03-01T13:48:24.403Z,4.60
2023-03-01T13:50:59.673Z,4.50
2023-03-01T13:53:29.936Z,4.70
2023-03-01T13:56:00.988Z,4.70
2023-03-01T13:58:33.444Z,4.40
2023-03-01T14:01:09.437Z,4.50
2023-03-01T14:03:42.740Z,4.70
2023-03-01T14:06:16.844Z,4.80
2023-03-01T14:08:46.746Z,4.90
2023-03-01T14:11:26.181Z,4.90
2023-03-01T14:14:11.671Z,4.90
2023-03-01T14:16:59.771Z,4.60
2023-03-01T14:19:33.401Z,4.40
2023-03-01T14:22:23.113Z,4.60
2023-03-01T14:24:53.254Z,4.80
2023-03-01T14:27:20.492Z,4.80
2023-03-01T14:30:02.490Z,4.80
2023-03-01T14:32:31.802Z,4.80
2023-03-01T14:34:59.982Z,4.60
2023-03-01T14:37:35.614Z,4.70
2023-03-01T14:40:05.018Z,4.80
2023-03-01T14:42:37.980Z,4.90
2023-03-01T14:45:07.353Z,4.90
2023-03-01T14:47:37.157Z,4.80
2023-03-01T14:50:11.624Z,4.90
2023-03-01T14:52:45.582Z,4.70
2023-03-01T14:55:26.623Z,4.90
2023-03-01T14:57:53.711Z,4.80
2023-03-01T15:00:27.035Z,5.00
2023-03-01T15:02:55.324Z,5.10
2023-03-01T15:05:30.773Z,5.20
2023-03-01T15:08:02.835Z,5.40
2023-03-01T15:10:32.787Z,5.50
2023-03-01T15:13:22.625Z,5.60
2023-03-01T15:15:52.211Z,5.70
2023-03-01T15:18:27.613Z,5.90
2023-03-01T15:20:55.026Z,6.10
2023-03-01T15:23:27.228Z,6.10
2023-03-01T15:25:58.850Z,6.20
2023-03-01T15:28:32.467Z,6.40
2023-03-01T15:31:23.386Z,6.80
2023-03-01T15:33:50.483Z,6.80
2023-03-01T15:36:34.442Z,7.10
2023-03-01T15:39:02.293Z,6.90
2023-03-01T15:41:32.661Z,6.60
2023-03-01T15:44:01.128Z,6.80
2023-03-01T15:46:35.197Z,7.10
2023-03-01T15:49:05.857Z,7.20
2023-03-01T15:51:35.701Z,7.20
2023-03-01T15:54:18.414Z,7.50
2023-03-01T15:56:45.433Z,7.60
2023-03-01T15:59:14.906Z,7.20
2023-03-01T16:01:42.505Z,7.30
2023-03-01T16:04:17.181Z,7.30
2023-03-01T16:06:43.844Z,7.30
2023-03-01T16:09:10.419Z,6.90
2023-03-01T16:11:38.076Z,6.90
2023-03-01T16:14:04.852Z,6.70
2023-03-01T16:16:31.977Z,6.60
2023-03-01T16:18:58.783Z,6.50
2023-03-01T16:21:26.025Z,5.90
2023-03-01T16:23:53.506Z,5.50
2023-03-01T16:26:21.447Z,5.60
2023-03-01T16:28:48.522Z,5.60
2023-03-01T16:31:19.561Z,5.40
2023-03-01T16:33:50.536Z,5.20
2023-03-01T16:36:19.356Z,5.10
2023-03-01T16:38:46.500Z,5.20
2023-03-01T16:41:16.530Z,5.10
2023-03-01T16:43:44.038Z,5.10
2023-03-01T16:46:15.991Z,5.20
2023-03-01T16:48:43.060Z,5.10
2023-03-01T16:51:09.997Z,4.80
2023-03-01T16:53:37.684Z,4.60
2023-03-01T16:56:06.736Z,4.50
2023-03-01T16:58:33.428Z,4.60
2023-03-01T17:01:06.845Z,4.50
2023-03-01T17:03:33.563Z,4.50
2023-03-01T17:06:05.933Z,4.30
2023-03-01T17:08:32.928Z,4.20
2023-03-01T17:11:11.953Z,4.20
2023-03-01T17:13:39.166Z,4.40
2023-03-01T17:16:11.601Z,4.40
2023-03-01T17:18:39.005Z,4.60
2023-03-01T17:21:06.959Z,4.60
2023-03-01T17:23:35.758Z,4.60
2023-03-01T17:26:02.544Z,4.60
2023-03-01T17:28:32.586Z,4.70
2023-03-01T17:31:00.634Z,4.70
2023-03-01T17:33:27.374Z,4.80
2023-03-01T17:35:54.214Z,4.90
2023-03-01T17:38:21.104Z,5.00
2023-03-01T17:40:47.940Z,5.10
2023-03-01T17:43:16.539Z,4.90
2023-03-01T17:45:47.518Z,4.90
2023-03-01T17:48:15.336Z,4.80
2023-03-01T17:50:42.139Z,4.70
2023-03-01T17:53:10.057Z,4.90
2023-03-01T17:55:38.018Z,4.80
2023-03-01T17:58:06.414Z,5.00
2023-03-01T18:00:34.207Z,5.10
2023-03-01T18:03:00.962Z,5.10
2023-03-01T18:05:28.190Z,5.10
2023-03-01T18:07:54.846Z,5.10
2023-03-01T18:10:21.467Z,5.00
2023-03-01T18:12:48.226Z,4.90
2023-03-01T18:15:14.957Z,5.00
2023-03-01T18:17:41.552Z,4.90
2023-03-01T18:20:09.281Z,4.80
2023-03-01T18:22:35.947Z,4.80
2023-03-01T18:25:02.570Z,4.80
2023-03-01T18:27:29.196Z,4.80
2023-03-01T18:29:56.356Z,4.80
2023-03-01T18:32:23.807Z,4.80
2023-03-01T18:34:50.439Z,4.80
2023-03-01T18:37:18.056Z,4.80
2023-03-01T18:39:44.679Z,4.50
2023-03-01T18:42:11.342Z,4.50
2023-03-01T18:44:38.531Z,4.50
2023-03-01T18:47:05.183Z,4.50
2023-03-01T18:49:31.915Z,4.60
2023-03-01T18:51:58.896Z,4.60
2023-03-01T18:54:25.507Z,4.70
2023-03-01T18:56:52.135Z,4.60
2023-03-01T18:59:18.747Z,4.60
2023-03-01T19:01:45.474Z,4.70
2023-03-01T19:04:12.565Z,4.80
2023-03-01T19:06:39.305Z,4.70
2023-03-01T19:09:07.612Z,4.80
2023-03-01T19:11:37.528Z,4.90
2023-03-01T19:14:04.809Z,5.00
2023-03-01T19:16:33.411Z,4.90
2023-03-01T19:19:03.243Z,5.00
2023-03-01T19:21:32.290Z,4.90
2023-03-01T19:23:59.966Z,4.90
2023-03-01T19:26:28.078Z,4.80
2023-03-01T19:28:55.738Z,4.70
2023-03-01T19:31:25.873Z,4.40
2023-03-01T19:33:59.532Z,4.20
2023-03-01T19:36:35.093Z,4.20
2023-03-01T19:39:04.015Z,4.20
2023-03-01T19:41:31.210Z,4.40
2023-03-01T19:43:58.187Z,4.50
2023-03-01T19:46:25.324Z,4.60
2023-03-01T19:48:54.832Z,4.60
2023-03-01T19:51:21.743Z,4.70
2023-03-01T19:53:48.622Z,4.80
2023-03-01T19:56:15.278Z,4.90
2023-03-01T19:58:42.180Z,4.60
2023-03-01T20:01:16.972Z,4.50
2023-03-01T20:03:43.993Z,4.60
2023-03-01T20:06:14.941Z,4.50
2023-03-01T20:08:41.673Z,4.40
2023-03-01T20:11:10.751Z,4.40
2023-03-01T20:13:37.815Z,4.40
2023-03-01T20:16:05.401Z,4.50
2023-03-01T20:18:32.522Z,4.50
2023-03-01T20:21:00.059Z,4.60
2023-03-01T20:23:27.010Z,4.50
2023-03-01T20:26:03.600Z,4.20
2023-03-01T20:28:30.270Z,4.40
2023-03-01T20:31:03.817Z,4.50
2023-03-01T20:33:30.414Z,4.70
2023-03-01T20:35:57.050Z,4.80
2023-03-01T20:38:23.689Z,4.90
2023-03-01T20:40:50.291Z,4.90
2023-03-01T20:43:16.943Z,4.70
2023-03-01T20:45:43.585Z,4.80
2023-03-01T20:48:10.288Z,4.90
2023-03-01T20:50:40.849Z,4.90
2023-03-01T20:53:08.341Z,5.00
2023-03-01T20:55:35.153Z,5.10
2023-03-01T20:58:01.824Z,5.00
2023-03-01T21:00:29.281Z,5.00
2023-03-01T21:02:56.136Z,4.70
2023-03-01T21:05:23.492Z,4.50
2023-03-01T21:07:50.958Z,4.50
2023-03-01T21:10:17.848Z,4.60
2023-03-01T21:12:44.510Z,4.60
2023-03-01T21:15:15.102Z,4.60
2023-03-01T21:17:48.058Z,4.60
2023-03-01T21:20:14.748Z,4.70
2023-03-01T21:22:41.337Z,4.60
2023-03-01T21:25:08.577Z,4.80
2023-03-01T21:27:38.633Z,4.80
2023-03-01T21:30:06.045Z,4.80
2023-03-01T21:32:32.766Z,4.80
2023-03-01T21:34:59.546Z,4.80
2023-03-01T21:37:28.895Z,4.80
2023-03-01T21:39:56.984Z,4.70
2023-03-01T21:42:23.610Z,4.70
2023-03-01T21:44:50.214Z,4.80
2023-03-01T21:47:16.821Z,4.80
2023-03-01T21:49:43.488Z,4.80
2023-03-01T21:52:16.718Z,4.80
2023-03-01T21:54:44.041Z,4.80
2023-03-01T21:57:11.395Z,4.70
2023-03-01T21:59:39.116Z,4.70
2023-03-01T22:02:05.773Z,4.70
2023-03-01T22:04:32.390Z,4.70
2023-03-01T22:06:59.061Z,4.70
2023-03-01T22:09:25.915Z,4.70
2023-03-01T22:11:58.236Z,4.70
2023-03-01T22:14:26.350Z,4.60
2023-03-01T22:16:53.294Z,4.70
2023-03-01T22:19:20.816Z,4.60
2023-03-01T22:21:49.903Z,4.60
2023-03-01T22:24:25.831Z,4.70
2023-03-01T22:26:53.523Z,4.70
2023-03-01T22:29:24.141Z,4.80
2023-03-01T22:31:51.645Z,4.80
2023-03-01T22:34:18.684Z,4.90
2023-03-01T22:36:46.139Z,4.90
2023-03-01T22:39:15.095Z,4.40
2023-03-01T22:41:44.820Z,4.50
2023-03-01T22:44:17.470Z,4.60
2023-03-01T22:46:45.223Z,4.70
2023-03-01T22:49:12.390Z,4.80
2023-03-01T22:51:41.084Z,4.80
2023-03-01T22:54:09.105Z,4.80
2023-03-01T22:56:37.446Z,4.80
2023-03-01T22:59:08.654Z,4.80
2023-03-01T23:01:36.027Z,4.90
2023-03-01T23:04:02.945Z,4.90
2023-03-01T23:06:33.101Z,5.00
2023-03-01T23:09:02.624Z,5.00
2023-03-01T23:11:29.508Z,5.10
2023-03-01T23:13:56.543Z,5.20
2023-03-01T23:16:26.063Z,5.10
2023-03-01T23:18:58.965Z,5.20
2023-03-01T23:21:25.890Z,5.30
2023-03-01T23:23:55.027Z,5.30
2023-03-01T23:26:22.274Z,5.30
2023-03-01T23:28:50.745Z,5.30
2023-03-01T23:31:17.650Z,5.20
2023-03-01T23:33:45.648Z,5.10
2023-03-01T23:36:18.219Z,5.10
2023-03-01T23:38:46.503Z,5.20
2023-03-01T23:41:15.341Z,5.10
2023-03-01T23:43:49.777Z,5.00
2023-03-01T23:46:18.039Z,4.90
2023-03-01T23:48:45.533Z,5.10
2023-03-01T23:51:12.795Z,5.20
2023-03-01T23:53:54.812Z,5.30
2023-03-01T23:56:31.240Z,5.00
2023-03-01T23:59:01.303Z,5.10
